Time;durP1;ratioP1;P1;durP2;ratioP2;P2;SDS_P1;SDS_P2;PMS_P1;PMS_P2;Temp;Humidity;BMP_temperature;BMP_pressure;BME280_temperature;BME280_humidity;BME280_pressure;Samples;Min_cycle;Max_cycle;Signal;HPM_P1;HPM_P2
2022/02/22 00:01:13;;;;;;;0.30;0.20;;;4.90;99.90;;;;;;5033536;28;20454;-81
2022/02/22 00:03:41;;;;;;;0.30;0.30;;;4.80;99.90;;;;;;5033299;28;20926;-81
2022/02/22 00:06:07;;;;;;;0.30;0.20;;;4.90;99.90;;;;;;5033469;28;20820;-81
2022/02/22 00:08:34;;;;;;;0.30;0.20;;;5.00;99.90;;;;;;5033388;28;20483;-81
2022/02/22 00:11:02;;;;;;;0.30;0.20;;;5.00;99.90;;;;;;5033143;28;20457;-81
2022/02/22 00:13:29;;;;;;;0.30;0.30;;;5.00;99.90;;;;;;5033093;28;20443;-83
2022/02/22 00:15:57;;;;;;;0.30;0.20;;;4.90;99.90;;;;;;5033344;28;20470;-83
2022/02/22 00:18:23;;;;;;;0.30;0.20;;;4.90;99.90;;;;;;5033287;28;20477;-83
2022/02/22 00:20:50;;;;;;;0.30;0.20;;;4.90;99.90;;;;;;5033347;28;20454;-83
2022/02/22 00:23:17;;;;;;;0.30;0.20;;;4.90;99.90;;;;;;5032923;28;20443;-83
2022/02/22 00:25:44;;;;;;;0.40;0.37;;;4.80;99.90;;;;;;5033240;28;20450;-83
2022/02/22 00:28:12;;;;;;;0.30;0.20;;;4.80;99.90;;;;;;5032884;28;20471;-83
2022/02/22 00:30:39;;;;;;;0.30;0.20;;;4.70;99.90;;;;;;5033659;28;20447;-83
2022/02/22 00:33:05;;;;;;;0.30;0.20;;;4.80;99.90;;;;;;5033244;28;20447;-83
2022/02/22 00:35:32;;;;;;;0.30;0.20;;;4.80;99.90;;;;;;5033112;28;20488;-83
2022/02/22 00:37:59;;;;;;;0.30;0.20;;;4.80;99.90;;;;;;5032869;28;20463;-83
2022/02/22 00:40:26;;;;;;;0.30;0.30;;;4.80;99.90;;;;;;5032814;28;20455;-83
2022/02/22 00:42:53;;;;;;;0.30;0.20;;;4.80;99.90;;;;;;5032854;28;20439;-84
2022/02/22 00:45:21;;;;;;;0.30;0.20;;;4.80;99.90;;;;;;5033078;28;20446;-84
2022/02/22 00:47:47;;;;;;;0.30;0.30;;;4.80;99.90;;;;;;5033038;28;20476;-83
2022/02/22 00:50:14;;;;;;;0.30;0.20;;;4.70;99.90;;;;;;5032712;28;20462;-83
2022/02/22 00:52:41;;;;;;;0.30;0.20;;;4.60;99.90;;;;;;5036107;28;20435;-83
2022/02/22 00:55:09;;;;;;;0.30;0.20;;;4.60;99.90;;;;;;5036534;28;21001;-83
2022/02/22 00:57:37;;;;;;;0.30;0.20;;;4.60;99.90;;;;;;5036576;28;20481;-82
2022/02/22 01:00:05;;;;;;;0.30;0.20;;;4.60;99.90;;;;;;5036864;28;20451;-83
2022/02/22 01:02:33;;;;;;;0.30;0.30;;;4.60;99.90;;;;;;5036773;28;20447;-83
2022/02/22 01:05:00;;;;;;;0.30;0.20;;;4.60;99.90;;;;;;5036764;28;20458;-83
2022/02/22 01:07:27;;;;;;;0.30;0.20;;;4.70;99.90;;;;;;5036275;28;20474;-83
2022/02/22 01:09:53;;;;;;;0.30;0.30;;;4.70;99.90;;;;;;5036366;28;20953;-83
2022/02/22 01:12:20;;;;;;;0.53;0.30;;;4.70;99.90;;;;;;5036576;28;20465;-84
2022/02/22 01:14:47;;;;;;;0.30;0.20;;;4.70;99.90;;;;;;5036423;28;20489;-83
2022/02/22 01:17:14;;;;;;;0.30;0.20;;;4.70;99.90;;;;;;5036174;28;20450;-84
2022/02/22 01:19:42;;;;;;;0.30;0.20;;;4.70;99.90;;;;;;5036131;28;20451;-83
2022/02/22 01:22:09;;;;;;;0.30;0.30;;;4.70;99.90;;;;;;5036245;28;20807;-83
2022/02/22 01:24:36;;;;;;;0.30;0.20;;;4.70;99.90;;;;;;5036324;28;20447;-83
2022/02/22 01:27:03;;;;;;;0.30;0.30;;;4.70;99.90;;;;;;5036300;28;20470;-83
2022/02/22 01:29:30;;;;;;;0.30;0.30;;;4.50;99.90;;;;;;5035880;28;20481;-83
2022/02/22 01:31:57;;;;;;;0.30;0.20;;;4.50;99.90;;;;;;5035949;28;20430;-83
2022/02/22 01:34:23;;;;;;;0.30;0.30;;;4.40;99.90;;;;;;5035944;28;20481;-84
2022/02/22 01:36:51;;;;;;;0.30;0.30;;;4.20;99.90;;;;;;5036079;28;20561;-84
2022/02/22 01:39:18;;;;;;;0.30;0.30;;;4.30;99.90;;;;;;5036104;28;20455;-83
2022/02/22 01:41:45;;;;;;;0.30;0.30;;;4.30;99.90;;;;;;5036073;28;20442;-83
2022/02/22 01:44:13;;;;;;;0.30;0.20;;;4.30;99.90;;;;;;5036055;28;20451;-84
2022/02/22 01:46:40;;;;;;;0.30;0.20;;;4.20;99.90;;;;;;5035613;28;20442;-84
2022/02/22 01:49:07;;;;;;;0.30;0.20;;;4.10;99.90;;;;;;5035636;28;20439;-83
2022/02/22 01:51:34;;;;;;;0.30;0.30;;;4.10;99.90;;;;;;5035842;28;20457;-84
2022/02/22 01:54:02;;;;;;;0.30;0.20;;;4.10;99.90;;;;;;5035484;28;20435;-84
2022/02/22 01:56:29;;;;;;;0.30;0.20;;;4.00;99.90;;;;;;5035764;28;20450;-84
2022/02/22 01:58:56;;;;;;;0.30;0.20;;;4.00;99.90;;;;;;5035672;28;20482;-84
2022/02/22 02:01:23;;;;;;;0.30;0.30;;;4.00;99.90;;;;;;5035677;28;20459;-83
2022/02/22 02:03:53;;;;;;;0.30;0.20;;;4.00;99.90;;;;;;5035452;28;20470;-83
2022/02/22 02:06:20;;;;;;;0.30;0.30;;;3.80;99.90;;;;;;5035633;28;20923;-83
2022/02/22 02:08:47;;;;;;;0.30;0.20;;;3.80;99.90;;;;;;5035163;28;20973;-83
2022/02/22 02:11:15;;;;;;;0.30;0.20;;;3.70;99.90;;;;;;5035282;28;20435;-82
2022/02/22 02:13:42;;;;;;;0.40;0.40;;;3.60;99.90;;;;;;5035475;28;20455;-84
2022/02/22 02:16:08;;;;;;;0.30;0.20;;;3.50;99.90;;;;;;5035009;28;20478;-83
2022/02/22 02:18:35;;;;;;;0.30;0.30;;;3.50;99.90;;;;;;5035029;28;20478;-83
2022/02/22 02:21:03;;;;;;;0.30;0.20;;;3.50;99.90;;;;;;5035305;28;20446;-84
2022/02/22 02:23:31;;;;;;;0.30;0.20;;;3.40;99.90;;;;;;5035302;28;20477;-84
2022/02/22 02:25:57;;;;;;;0.40;0.40;;;3.40;99.90;;;;;;5035314;28;20454;-84
2022/02/22 02:28:24;;;;;;;0.30;0.30;;;3.50;99.90;;;;;;5034711;28;20470;-84
2022/02/22 02:30:51;;;;;;;0.30;0.30;;;3.40;99.90;;;;;;5034890;28;20420;-84
2022/02/22 02:33:18;;;;;;;0.40;0.30;;;3.30;99.90;;;;;;5034817;28;20435;-84
2022/02/22 02:35:44;;;;;;;0.30;0.30;;;3.30;99.90;;;;;;5034662;28;20485;-84
2022/02/22 02:38:11;;;;;;;0.30;0.30;;;3.40;99.90;;;;;;5034633;28;20982;-84
2022/02/22 02:40:40;;;;;;;0.30;0.23;;;3.50;99.90;;;;;;5034630;28;20457;-84
2022/02/22 02:43:06;;;;;;;0.30;0.20;;;3.60;99.90;;;;;;5034947;28;20435;-83
2022/02/22 02:45:33;;;;;;;0.30;0.20;;;3.50;99.90;;;;;;5034611;28;20449;-84
2022/02/22 02:48:00;;;;;;;0.30;0.20;;;3.50;99.90;;;;;;5034722;28;20477;-84
2022/02/22 02:50:27;;;;;;;0.30;0.20;;;3.50;99.90;;;;;;5034773;28;20446;-83
2022/02/22 02:52:53;;;;;;;0.30;0.20;;;3.40;99.90;;;;;;5034691;28;20439;-84
2022/02/22 02:55:20;;;;;;;0.30;0.20;;;3.60;99.90;;;;;;5034608;28;20494;-84
2022/02/22 02:57:48;;;;;;;0.30;0.23;;;3.60;99.90;;;;;;5034558;28;20469;-83
2022/02/22 03:00:16;;;;;;;0.30;0.23;;;3.60;99.90;;;;;;5034465;28;20462;-83
2022/02/22 03:02:42;;;;;;;0.30;0.20;;;3.50;99.90;;;;;;5034273;28;20434;-83
2022/02/22 03:05:09;;;;;;;0.30;0.20;;;3.60;99.90;;;;;;5034497;28;20458;-84
2022/02/22 03:07:36;;;;;;;0.30;0.20;;;3.50;99.90;;;;;;5034359;28;20476;-83
2022/02/22 03:10:05;;;;;;;0.30;0.20;;;3.40;99.90;;;;;;5034369;28;20458;-82
2022/02/22 03:12:32;;;;;;;0.30;0.20;;;3.40;99.90;;;;;;5034099;28;20438;-83
2022/02/22 03:15:00;;;;;;;0.30;0.20;;;3.30;99.90;;;;;;5033337;28;20480;-83
2022/02/22 03:17:26;;;;;;;0.30;0.30;;;3.30;99.90;;;;;;5034011;28;20806;-83
2022/02/22 03:19:53;;;;;;;0.30;0.20;;;3.30;99.90;;;;;;5034239;28;20454;-83
2022/02/22 03:22:20;;;;;;;0.30;0.30;;;3.20;99.90;;;;;;5034149;28;20465;-83
2022/02/22 03:24:48;;;;;;;0.30;0.20;;;3.20;99.90;;;;;;5034137;28;20549;-83
2022/02/22 03:27:15;;;;;;;0.30;0.20;;;3.20;99.90;;;;;;5034633;28;20475;-84
2022/02/22 03:29:42;;;;;;;0.30;0.20;;;3.20;99.90;;;;;;5033590;28;20497;-83
2022/02/22 03:32:10;;;;;;;0.90;0.40;;;3.10;99.90;;;;;;5033742;28;20482;-83
2022/02/22 03:34:37;;;;;;;0.30;0.20;;;3.10;99.90;;;;;;5033590;28;20453;-84
2022/02/22 03:37:04;;;;;;;0.30;0.20;;;3.10;99.90;;;;;;5034163;28;20474;-83
2022/02/22 03:39:31;;;;;;;0.30;0.20;;;3.10;99.90;;;;;;5033897;28;20450;-84
2022/02/22 03:41:58;;;;;;;0.30;0.30;;;3.10;99.90;;;;;;5034218;28;20466;-84
2022/02/22 03:44:25;;;;;;;0.30;0.20;;;3.10;99.90;;;;;;5033916;28;20411;-84
2022/02/22 03:46:51;;;;;;;0.30;0.20;;;3.10;99.90;;;;;;5033394;28;20443;-84
2022/02/22 03:49:20;;;;;;;0.30;0.30;;;3.10;99.90;;;;;;5033702;28;20432;-83
2022/02/22 03:51:47;;;;;;;0.30;0.30;;;3.10;99.90;;;;;;5033650;28;20462;-84
2022/02/22 03:54:13;;;;;;;0.30;0.30;;;3.10;99.90;;;;;;5033282;28;20434;-83
2022/02/22 03:56:40;;;;;;;0.30;0.20;;;3.20;99.90;;;;;;5033203;28;20478;-84
2022/02/22 03:59:07;;;;;;;0.30;0.20;;;3.20;99.90;;;;;;5033562;28;20455;-84
2022/02/22 04:01:34;;;;;;;0.30;0.20;;;3.30;99.90;;;;;;5033467;28;20513;-84
2022/02/22 04:04:01;;;;;;;0.30;0.20;;;3.30;99.90;;;;;;5033502;28;20451;-83
2022/02/22 04:06:29;;;;;;;0.30;0.20;;;3.30;99.90;;;;;;5033410;28;20447;-84
2022/02/22 04:08:56;;;;;;;0.30;0.20;;;3.20;99.90;;;;;;5033456;28;20470;-83
2022/02/22 04:11:23;;;;;;;0.30;0.30;;;3.20;99.90;;;;;;5033503;28;20864;-83
2022/02/22 04:13:49;;;;;;;0.30;0.30;;;3.10;99.90;;;;;;5033340;28;20462;-83
2022/02/22 04:16:16;;;;;;;0.30;0.30;;;3.20;99.90;;;;;;5033058;28;20482;-83
2022/02/22 04:18:43;;;;;;;0.30;0.30;;;3.20;99.90;;;;;;5033286;28;20471;-84
2022/02/22 04:21:10;;;;;;;0.30;0.20;;;3.10;99.90;;;;;;5033030;28;21021;-83
2022/02/22 04:23:38;;;;;;;0.30;0.30;;;3.20;99.90;;;;;;5033215;28;20446;-83
2022/02/22 04:26:05;;;;;;;0.30;0.20;;;3.20;99.90;;;;;;5035512;28;20942;-84
2022/02/22 04:28:31;;;;;;;0.30;0.30;;;3.20;99.90;;;;;;5036788;28;20486;-84
2022/02/22 04:30:58;;;;;;;2.20;1.17;;;3.20;99.90;;;;;;5037451;28;20442;-83
2022/02/22 04:33:25;;;;;;;0.30;0.20;;;3.20;99.90;;;;;;5037377;28;20450;-83
2022/02/22 04:35:52;;;;;;;0.30;0.30;;;3.20;99.90;;;;;;5037261;28;20478;-83
2022/02/22 04:38:18;;;;;;;0.30;0.20;;;3.20;99.90;;;;;;5036869;28;21045;-84
2022/02/22 04:40:47;;;;;;;0.30;0.20;;;3.20;99.90;;;;;;5036896;28;20450;-83
2022/02/22 04:43:14;;;;;;;0.30;0.20;;;3.10;99.90;;;;;;5037197;28;20454;-83
2022/02/22 04:45:40;;;;;;;0.30;0.20;;;3.10;99.90;;;;;;5037191;28;20836;-83
2022/02/22 04:48:07;;;;;;;0.30;0.20;;;3.20;99.90;;;;;;5037008;28;20839;-83
2022/02/22 04:50:34;;;;;;;0.30;0.20;;;3.10;99.90;;;;;;5036789;28;20442;-83
2022/02/22 04:53:00;;;;;;;0.30;0.30;;;3.10;99.90;;;;;;5036667;28;20964;-83
2022/02/22 04:55:27;;;;;;;0.30;0.20;;;3.10;99.90;;;;;;5036884;28;20557;-83
2022/02/22 04:57:55;;;;;;;0.30;0.20;;;3.10;99.90;;;;;;5036881;28;20492;-83
2022/02/22 05:00:22;;;;;;;0.30;0.20;;;3.10;99.90;;;;;;5036910;28;20454;-83
2022/02/22 05:02:49;;;;;;;0.30;0.30;;;3.00;99.90;;;;;;5036872;28;20455;-83
2022/02/22 05:05:16;;;;;;;0.30;0.20;;;2.90;99.90;;;;;;5036823;28;20454;-84
2022/02/22 05:07:42;;;;;;;0.30;0.30;;;2.90;99.90;;;;;;5036640;28;20463;-83
2022/02/22 05:10:10;;;;;;;0.30;0.20;;;2.90;99.90;;;;;;5036626;28;20455;-84
2022/02/22 05:12:36;;;;;;;0.63;0.63;;;2.90;99.90;;;;;;5036358;28;20502;-83
2022/02/22 05:15:06;;;;;;;0.30;0.20;;;2.90;99.90;;;;;;5036495;28;20447;-84
2022/02/22 05:17:33;;;;;;;0.30;0.20;;;2.80;99.90;;;;;;5036172;28;21017;-84
2022/02/22 05:20:00;;;;;;;1.63;1.53;;;2.80;99.90;;;;;;5036487;28;20493;-83
2022/02/22 05:22:27;;;;;;;0.30;0.30;;;2.80;99.90;;;;;;5036477;28;20443;-84
2022/02/22 05:24:53;;;;;;;0.30;0.30;;;2.70;99.90;;;;;;5036313;28;20463;-83
2022/02/22 05:27:20;;;;;;;0.30;0.30;;;2.70;99.90;;;;;;5036282;28;20462;-83
2022/02/22 05:29:47;;;;;;;0.30;0.20;;;2.70;99.90;;;;;;5035795;28;20994;-83
2022/02/22 05:32:15;;;;;;;0.30;0.30;;;2.70;99.90;;;;;;5035774;28;20505;-84
2022/02/22 05:34:42;;;;;;;0.30;0.30;;;2.70;99.90;;;;;;5036174;28;20442;-84
2022/02/22 05:37:08;;;;;;;0.30;0.30;;;2.70;99.90;;;;;;5035354;28;20489;-83
2022/02/22 05:39:35;;;;;;;0.30;0.30;;;2.70;99.90;;;;;;5036110;28;20457;-84
2022/02/22 05:42:02;;;;;;;0.30;0.30;;;2.80;99.90;;;;;;5035908;28;20465;-84
2022/02/22 05:44:29;;;;;;;0.30;0.30;;;2.70;99.90;;;;;;5035667;28;20454;-83
2022/02/22 05:46:55;;;;;;;0.30;0.30;;;2.80;99.90;;;;;;5035644;28;20442;-83
2022/02/22 05:49:25;;;;;;;0.30;0.30;;;2.80;99.90;;;;;;5035897;28;20457;-83
2022/02/22 05:51:53;;;;;;;0.30;0.30;;;2.70;99.90;;;;;;5035906;28;20450;-84
2022/02/22 05:54:20;;;;;;;0.30;0.20;;;2.70;99.90;;;;;;5035905;28;20454;-84
2022/02/22 05:56:47;;;;;;;0.30;0.20;;;2.70;99.90;;;;;;5035677;28;20478;-84
2022/02/22 05:59:14;;;;;;;0.30;0.30;;;2.70;99.90;;;;;;5035721;28;20458;-84
2022/02/22 06:01:43;;;;;;;0.30;0.20;;;2.70;99.90;;;;;;5035707;28;20450;-83
2022/02/22 06:04:10;;;;;;;0.30;0.30;;;2.70;99.90;;;;;;5035562;28;20439;-83
2022/02/22 06:06:38;;;;;;;0.30;0.20;;;2.70;99.90;;;;;;5035229;28;20455;-84
2022/02/22 06:09:05;;;;;;;0.30;0.20;;;2.60;99.90;;;;;;5036372;28;20477;-82
2022/02/22 06:11:32;;;;;;;0.30;0.20;;;2.50;99.90;;;;;;5035433;28;20458;-82
2022/02/22 06:13:59;;;;;;;0.30;0.20;;;2.60;99.90;;;;;;5035201;28;20435;-81
2022/02/22 06:16:27;;;;;;;0.30;0.30;;;2.50;99.90;;;;;;5034989;28;20864;-81
2022/02/22 06:18:54;;;;;;;0.30;0.30;;;2.50;99.90;;;;;;5035252;28;20480;-81
2022/02/22 06:21:21;;;;;;;0.30;0.30;;;2.50;99.90;;;;;;5034969;28;20461;-80
2022/02/22 06:23:50;;;;;;;0.30;0.20;;;2.50;99.90;;;;;;5035351;28;20543;-83
2022/02/22 06:26:16;;;;;;;0.30;0.20;;;2.50;99.90;;;;;;5035254;28;20449;-83
2022/02/22 06:28:43;;;;;;;0.30;0.30;;;2.50;99.90;;;;;;5034553;28;21011;-84
2022/02/22 06:31:10;;;;;;;0.30;0.30;;;2.40;99.90;;;;;;5035142;28;20520;-83
2022/02/22 06:33:37;;;;;;;0.30;0.20;;;2.40;99.90;;;;;;5035202;28;20558;-83
2022/02/22 06:36:05;;;;;;;0.30;0.20;;;2.40;99.90;;;;;;5035023;28;20486;-83
2022/02/22 06:38:31;;;;;;;0.30;0.20;;;2.50;99.90;;;;;;5034944;28;20467;-83
2022/02/22 06:41:00;;;;;;;0.30;0.30;;;2.50;99.90;;;;;;5034729;28;20469;-83
2022/02/22 06:43:26;;;;;;;0.30;0.20;;;2.50;99.90;;;;;;5034510;28;20458;-83
2022/02/22 06:45:53;;;;;;;0.30;0.20;;;2.50;99.90;;;;;;5034910;28;20443;-83
2022/02/22 06:48:20;;;;;;;0.50;0.50;;;2.60;99.90;;;;;;5034609;28;20470;-84
2022/02/22 06:50:47;;;;;;;0.30;0.27;;;2.60;99.90;;;;;;5034237;28;20472;-83
2022/02/22 06:53:14;;;;;;;0.30;0.20;;;2.60;99.90;;;;;;5034810;28;20439;-83
2022/02/22 06:55:41;;;;;;;0.47;0.30;;;2.60;99.90;;;;;;5034347;28;20443;-83
2022/02/22 06:58:11;;;;;;;0.50;0.40;;;2.70;99.90;;;;;;5034579;28;20471;-83
2022/02/22 07:00:43;;;;;;;0.30;0.20;;;2.80;99.90;;;;;;5034638;28;20462;-83
2022/02/22 07:03:10;;;;;;;0.30;0.20;;;2.90;99.90;;;;;;5034269;28;20435;-84
2022/02/22 07:05:37;;;;;;;0.30;0.30;;;2.90;99.90;;;;;;5034530;28;20815;-83
2022/02/22 07:08:05;;;;;;;0.30;0.20;;;3.00;99.90;;;;;;5034346;28;20465;-83
2022/02/22 07:10:32;;;;;;;0.30;0.30;;;3.10;99.90;;;;;;5034111;28;20942;-83
2022/02/22 07:12:59;;;;;;;0.30;0.20;;;3.20;99.90;;;;;;5034254;28;20527;-84
2022/02/22 07:15:27;;;;;;;0.30;0.23;;;3.30;99.90;;;;;;5034411;28;20455;-84
2022/02/22 07:17:56;;;;;;;0.30;0.30;;;3.40;99.90;;;;;;5034247;28;20486;-82
2022/02/22 07:20:26;;;;;;;0.30;0.20;;;3.60;99.90;;;;;;5034242;28;20439;-81
2022/02/22 07:22:55;;;;;;;0.30;0.20;;;3.80;99.90;;;;;;5034210;28;20451;-81
2022/02/22 07:25:23;;;;;;;0.30;0.30;;;4.00;99.90;;;;;;5034219;28;20441;-81
2022/02/22 07:27:50;;;;;;;0.30;0.20;;;4.10;99.90;;;;;;5033788;28;20467;-81
2022/02/22 07:30:19;;;;;;;1.23;0.50;;;4.20;99.90;;;;;;5034012;28;20418;-81
2022/02/22 07:32:48;;;;;;;0.30;0.30;;;4.30;99.90;;;;;;5033881;28;20462;-81
2022/02/22 07:35:15;;;;;;;0.30;0.20;;;4.30;99.90;;;;;;5034061;28;20423;-81
2022/02/22 07:37:43;;;;;;;0.40;0.40;;;4.30;99.90;;;;;;5033586;28;20490;-81
2022/02/22 07:40:14;;;;;;;0.30;0.30;;;4.40;99.90;;;;;;5034793;28;20526;-81
2022/02/22 07:42:41;;;;;;;0.30;0.20;;;4.40;99.90;;;;;;5033593;28;20450;-81
2022/02/22 07:45:10;;;;;;;0.30;0.30;;;4.40;99.90;;;;;;5033887;28;20445;-82
2022/02/22 07:47:37;;;;;;;0.30;0.30;;;4.60;99.90;;;;;;5033490;28;20475;-82
2022/02/22 07:50:07;;;;;;;0.30;0.30;;;4.70;99.90;;;;;;5033865;28;20447;-82
2022/02/22 07:52:34;;;;;;;0.30;0.20;;;4.70;99.90;;;;;;5033814;28;20443;-81
2022/02/22 07:55:01;;;;;;;0.30;0.20;;;4.70;99.90;;;;;;5033553;28;20875;-81
2022/02/22 07:57:28;;;;;;;0.30;0.30;;;4.80;99.90;;;;;;5033587;28;20493;-82
2022/02/22 07:59:55;;;;;;;0.30;0.20;;;4.80;99.90;;;;;;5033528;28;20764;-81
2022/02/22 08:02:22;;;;;;;0.30;0.20;;;4.80;99.90;;;;;;5033483;28;20411;-81
2022/02/22 08:04:49;;;;;;;0.30;0.30;;;4.90;99.90;;;;;;5033605;28;20439;-82
2022/02/22 08:07:20;;;;;;;0.30;0.30;;;4.90;99.90;;;;;;5033546;28;20499;-81
2022/02/22 08:09:47;;;;;;;0.30;0.20;;;4.90;99.90;;;;;;5033564;28;20435;-81
2022/02/22 08:12:14;;;;;;;0.30;0.20;;;5.00;99.90;;;;;;5033416;28;20504;-82
2022/02/22 08:14:41;;;;;;;0.30;0.20;;;5.20;99.90;;;;;;5033211;28;20410;-82
2022/02/22 08:17:07;;;;;;;0.30;0.20;;;5.30;99.90;;;;;;5033200;28;20566;-82
2022/02/22 08:19:34;;;;;;;0.30;0.20;;;5.30;99.90;;;;;;5033390;28;20454;-82
2022/02/22 08:22:01;;;;;;;0.30;0.30;;;5.50;99.90;;;;;;5033296;28;20465;-82
2022/02/22 08:24:29;;;;;;;0.40;0.30;;;5.70;99.90;;;;;;5033299;28;20450;-82
2022/02/22 08:26:59;;;;;;;0.30;0.20;;;6.00;99.90;;;;;;5033264;28;20807;-83
2022/02/22 08:29:26;;;;;;;0.30;0.30;;;6.50;99.90;;;;;;5032888;28;20486;-83
2022/02/22 08:31:53;;;;;;;0.30;0.20;;;7.10;99.90;;;;;;5033156;28;20455;-82
2022/02/22 08:34:20;;;;;;;0.77;0.30;;;7.70;99.90;;;;;;5033269;28;20457;-83
2022/02/22 08:36:47;;;;;;;0.30;0.20;;;8.10;99.90;;;;;;5033009;28;20564;-83
2022/02/22 08:39:14;;;;;;;0.60;0.60;;;8.30;99.90;;;;;;5033115;28;20454;-83
2022/02/22 08:41:43;;;;;;;0.30;0.30;;;8.30;99.90;;;;;;5033162;28;20801;-82
2022/02/22 08:44:10;;;;;;;0.60;0.30;;;8.10;99.90;;;;;;5032955;28;20516;-83
2022/02/22 08:46:38;;;;;;;0.50;0.50;;;8.10;99.90;;;;;;5033030;28;20525;-83
2022/02/22 08:49:04;;;;;;;0.40;0.30;;;8.10;99.90;;;;;;5032597;28;20990;-83
2022/02/22 08:51:31;;;;;;;0.30;0.30;;;7.90;99.90;;;;;;5032597;28;20447;-82
2022/02/22 08:53:58;;;;;;;0.30;0.27;;;7.70;99.90;;;;;;5033072;28;20447;-82
2022/02/22 08:56:25;;;;;;;0.40;0.40;;;7.60;99.90;;;;;;5032988;28;20450;-82
2022/02/22 08:58:53;;;;;;;0.30;0.20;;;7.40;99.90;;;;;;5033036;28;20479;-82
2022/02/22 09:01:20;;;;;;;0.30;0.30;;;7.30;99.90;;;;;;5033001;28;20447;-82
2022/02/22 09:03:47;;;;;;;0.40;0.40;;;7.20;99.90;;;;;;5032949;28;20439;-83
2022/02/22 09:06:14;;;;;;;0.30;0.20;;;7.20;99.90;;;;;;5033316;28;20802;-82
2022/02/22 09:08:41;;;;;;;0.30;0.30;;;7.30;99.90;;;;;;5032791;28;20451;-82
2022/02/22 09:11:07;;;;;;;0.30;0.20;;;7.20;99.90;;;;;;5032868;28;20423;-82
2022/02/22 09:13:34;;;;;;;0.30;0.20;;;7.10;99.90;;;;;;5035944;28;20412;-82
2022/02/22 09:16:02;;;;;;;0.30;0.30;;;7.20;99.90;;;;;;5036620;28;20431;-82
2022/02/22 09:18:29;;;;;;;0.30;0.30;;;7.30;99.90;;;;;;5036601;28;20493;-82
2022/02/22 09:20:56;;;;;;;0.30;0.30;;;7.40;99.90;;;;;;5036482;28;20439;-82
2022/02/22 09:23:23;;;;;;;0.40;0.30;;;7.60;99.90;;;;;;5036364;28;20445;-82
2022/02/22 09:25:49;;;;;;;0.30;0.20;;;7.70;99.90;;;;;;5036507;28;20435;-82
2022/02/22 09:28:16;;;;;;;0.40;0.40;;;7.90;99.90;;;;;;5035967;28;20486;-82
2022/02/22 09:30:43;;;;;;;0.30;0.30;;;7.90;99.90;;;;;;5036053;28;20914;-82
2022/02/22 09:33:11;;;;;;;0.40;0.30;;;7.90;99.90;;;;;;5036046;28;20791;-82
2022/02/22 09:35:38;;;;;;;0.30;0.20;;;8.10;99.90;;;;;;5036217;28;20415;-83
2022/02/22 09:38:05;;;;;;;0.30;0.30;;;8.10;99.90;;;;;;5035800;28;20490;-82
2022/02/22 09:40:32;;;;;;;0.30;0.30;;;8.10;99.90;;;;;;5036206;28;20439;-82
2022/02/22 09:42:59;;;;;;;1.17;0.30;;;8.10;99.90;;;;;;5035865;28;20434;-82
2022/02/22 09:45:27;;;;;;;0.30;0.20;;;8.10;99.90;;;;;;5036329;28;20485;-82
2022/02/22 09:47:57;;;;;;;0.30;0.30;;;8.10;99.90;;;;;;5035994;28;20978;-82
2022/02/22 09:50:26;;;;;;;0.30;0.30;;;8.20;99.90;;;;;;5036013;28;20437;-82
2022/02/22 09:52:52;;;;;;;0.73;0.27;;;8.30;99.90;;;;;;5036012;28;20435;-83
2022/02/22 09:55:19;;;;;;;0.30;0.30;;;8.30;99.90;;;;;;5035962;28;20439;-83
2022/02/22 09:57:46;;;;;;;0.30;0.20;;;8.30;99.90;;;;;;5035531;28;21028;-82
2022/02/22 10:00:18;;;;;;;0.40;0.30;;;8.40;99.90;;;;;;5036017;28;20821;-82
2022/02/22 10:02:44;;;;;;;0.40;0.40;;;8.40;99.90;;;;;;5035789;28;20440;-82
2022/02/22 10:05:13;;;;;;;0.50;0.50;;;8.40;99.90;;;;;;5035822;28;20444;-82
2022/02/22 10:07:49;;;;;;;0.30;0.30;;;8.50;99.90;;;;;;5035913;28;20816;-83
2022/02/22 10:10:16;;;;;;;0.30;0.30;;;8.60;99.90;;;;;;5035808;28;20439;-83
2022/02/22 10:12:42;;;;;;;0.50;0.27;;;8.70;99.90;;;;;;5035964;28;20435;-83
2022/02/22 10:15:10;;;;;;;0.30;0.20;;;8.80;99.90;;;;;;5035569;28;20446;-83
2022/02/22 10:17:39;;;;;;;0.40;0.40;;;9.00;99.90;;;;;;5035174;28;21055;-83
2022/02/22 10:20:09;;;;;;;0.60;0.27;;;9.10;99.90;;;;;;5035790;28;20451;-83
2022/02/22 10:22:49;;;;;;;0.30;0.30;;;9.20;99.90;;;;;;5035346;28;20446;-83
2022/02/22 10:25:16;;;;;;;1.03;1.03;;;9.50;99.90;;;;;;5035415;28;20419;-82
2022/02/22 10:27:48;;;;;;;0.30;0.30;;;10.10;99.90;;;;;;5035259;28;20470;-82
2022/02/22 10:30:25;;;;;;;0.30;0.20;;;11.10;99.90;;;;;;5034910;28;20478;-82
2022/02/22 10:32:52;;;;;;;0.60;0.57;;;12.80;99.90;;;;;;5035179;28;20450;-82
2022/02/22 10:35:31;;;;;;;0.47;0.47;;;13.40;99.90;;;;;;5034848;28;20462;-82
2022/02/22 10:38:00;;;;;;;0.30;0.30;;;13.70;99.90;;;;;;5035145;28;20568;-82
2022/02/22 10:40:29;;;;;;;0.50;0.30;;;13.60;99.90;;;;;;5034760;28;20454;-82
2022/02/22 10:42:56;;;;;;;0.30;0.20;;;13.40;99.90;;;;;;5035021;28;20451;-83
2022/02/22 10:45:23;;;;;;;0.40;0.30;;;12.70;99.90;;;;;;5034843;28;20435;-82
2022/02/22 10:47:50;;;;;;;0.30;0.30;;;12.10;99.90;;;;;;5034884;28;20467;-82
2022/02/22 10:50:23;;;;;;;0.40;0.33;;;11.50;99.90;;;;;;5034779;28;20455;-82
2022/02/22 10:52:50;;;;;;;0.40;0.30;;;10.70;99.90;;;;;;5035128;28;20479;-82
2022/02/22 10:55:18;;;;;;;0.60;0.30;;;10.40;99.90;;;;;;5034433;28;20473;-82
2022/02/22 10:57:45;;;;;;;0.30;0.30;;;10.10;99.90;;;;;;5034197;28;20533;-82
2022/02/22 11:00:13;;;;;;;0.30;0.30;;;9.80;99.90;;;;;;5034635;28;20509;-82
2022/02/22 11:02:40;;;;;;;0.30;0.30;;;9.70;99.90;;;;;;5034247;28;20505;-82
2022/02/22 11:05:09;;;;;;;0.30;0.30;;;9.50;99.90;;;;;;5034345;28;20573;-82
2022/02/22 11:07:36;;;;;;;0.30;0.30;;;9.50;99.90;;;;;;5033953;28;20463;-82
2022/02/22 11:10:04;;;;;;;0.30;0.20;;;9.50;99.90;;;;;;5034129;28;20457;-82
2022/02/22 11:12:33;;;;;;;0.47;0.33;;;9.40;99.90;;;;;;5034339;28;20455;-82
2022/02/22 11:15:09;;;;;;;0.40;0.30;;;9.50;99.90;;;;;;5034342;28;20451;-82
2022/02/22 11:17:46;;;;;;;0.30;0.30;;;9.40;99.90;;;;;;5034115;28;20525;-82
2022/02/22 11:20:29;;;;;;;0.30;0.30;;;9.40;99.90;;;;;;5034390;28;20411;-82
2022/02/22 11:22:57;;;;;;;0.30;0.20;;;9.30;99.90;;;;;;5034202;28;20454;-82
2022/02/22 11:25:29;;;;;;;0.40;0.30;;;9.20;99.90;;;;;;5034569;28;20446;-83
2022/02/22 11:28:03;;;;;;;0.80;0.80;;;9.00;99.90;;;;;;5034017;28;20471;-81
2022/02/22 11:30:32;;;;;;;0.30;0.30;;;8.80;99.90;;;;;;5034142;28;20445;-81
2022/02/22 11:33:01;;;;;;;0.30;0.20;;;8.80;99.90;;;;;;5034000;28;20451;-81
2022/02/22 11:35:28;;;;;;;0.30;0.30;;;8.60;99.90;;;;;;5033365;28;20442;-81
2022/02/22 11:38:06;;;;;;;0.40;0.40;;;8.50;99.90;;;;;;5033865;28;20486;-81
2022/02/22 11:40:35;;;;;;;0.30;0.30;;;8.50;99.90;;;;;;5033607;28;20883;-81
2022/02/22 11:43:08;;;;;;;0.30;0.20;;;8.60;99.90;;;;;;5033599;28;20450;-81
2022/02/22 11:45:35;;;;;;;0.50;0.27;;;8.50;99.90;;;;;;5033577;28;20446;-81
2022/02/22 11:48:16;;;;;;;0.30;0.30;;;8.60;99.90;;;;;;5033708;28;20469;-81
2022/02/22 11:50:44;;;;;;;0.40;0.40;;;8.70;99.90;;;;;;5033424;28;20933;-81
2022/02/22 11:53:13;;;;;;;0.30;0.30;;;8.70;99.90;;;;;;5033577;28;20434;-81
2022/02/22 11:55:41;;;;;;;0.30;0.20;;;8.70;99.90;;;;;;5033583;28;20493;-81
2022/02/22 11:58:16;;;;;;;0.30;0.30;;;8.60;99.90;;;;;;5033268;28;20482;-81
2022/02/22 12:00:45;;;;;;;0.60;0.60;;;8.70;99.90;;;;;;5033659;28;20438;-81
2022/02/22 12:03:13;;;;;;;0.40;0.40;;;8.80;99.90;;;;;;5033477;28;20458;-81
2022/02/22 12:05:43;;;;;;;1.03;0.57;;;9.00;99.90;;;;;;5033480;28;20450;-81
2022/02/22 12:08:16;;;;;;;0.30;0.20;;;9.20;99.90;;;;;;5033804;28;20459;-82
2022/02/22 12:10:46;;;;;;;0.47;0.40;;;9.40;99.90;;;;;;5033625;28;20414;-82
2022/02/22 12:13:16;;;;;;;0.30;0.30;;;9.50;99.90;;;;;;5034537;28;20435;-82
2022/02/22 12:15:43;;;;;;;0.40;0.40;;;9.60;99.90;;;;;;5032927;28;20442;-82
2022/02/22 12:18:15;;;;;;;0.30;0.20;;;9.70;99.90;;;;;;5033220;28;20501;-82
2022/02/22 12:20:43;;;;;;;0.30;0.20;;;9.80;99.90;;;;;;5033398;28;20526;-82
2022/02/22 12:23:19;;;;;;;0.30;0.30;;;9.70;99.90;;;;;;5033198;28;20415;-82
2022/02/22 12:25:47;;;;;;;0.60;0.60;;;9.70;99.90;;;;;;5033154;28;20418;-81
2022/02/22 12:28:15;;;;;;;0.30;0.30;;;9.60;99.90;;;;;;5032899;28;20493;-82
2022/02/22 12:30:44;;;;;;;0.30;0.30;;;9.50;99.90;;;;;;5033198;28;20447;-82
2022/02/22 12:33:14;;;;;;;0.30;0.30;;;9.50;99.90;;;;;;5033172;28;20442;-82
2022/02/22 12:35:42;;;;;;;0.30;0.30;;;9.50;99.90;;;;;;5033419;28;20443;-83
2022/02/22 12:38:14;;;;;;;0.30;0.30;;;9.60;99.90;;;;;;5032613;28;20486;-81
2022/02/22 12:40:41;;;;;;;2.73;0.83;;;9.80;99.90;;;;;;5033232;28;20435;-81
2022/02/22 12:43:09;;;;;;;0.40;0.33;;;9.90;99.90;;;;;;5032893;28;20486;-82
2022/02/22 12:45:38;;;;;;;0.30;0.30;;;10.00;99.90;;;;;;5032715;28;20431;-82
2022/02/22 12:48:07;;;;;;;0.30;0.20;;;10.20;99.90;;;;;;5035480;28;20462;-82
2022/02/22 12:50:34;;;;;;;0.30;0.20;;;10.20;99.90;;;;;;5037132;28;20431;-82
2022/02/22 12:53:01;;;;;;;0.50;0.50;;;10.20;99.90;;;;;;5036871;28;20906;-82
2022/02/22 12:55:28;;;;;;;0.40;0.30;;;10.30;99.90;;;;;;5037039;28;20442;-82
2022/02/22 12:58:05;;;;;;;0.30;0.20;;;10.20;99.90;;;;;;5036871;28;20500;-82